Time,TemperatureF,DewpointF,PressureIn,WindDirection,WindDirectionDegrees,WindSpeedMPH,WindSpeedGustMPH,Humidity,HourlyPrecipIn,Conditions,Clouds,dailyrainin,SoftwareType,DateUTC
2013-02-11 00:00:00,20.4,11.6,30.36,North,0,0.0,1.0,68,0.00,,,0.00,meteo_script,2013-02-11 05:00:00,
2013-02-11 00:10:00,20.1,11.0,30.36,North,0,0.0,0.0,67,0.00,,,0.00,meteo_script,2013-02-11 05:10:00,
2013-02-11 00:15:00,19.8,11.4,30.36,North,0,0.0,0.0,69,0.00,,,0.00,meteo_script,2013-02-11 05:15:00,
2013-02-11 00:20:00,19.8,12.0,30.36,North,0,0.0,0.0,71,0.00,,,0.00,meteo_script,2013-02-11 05:20:00,
2013-02-11 00:25:00,19.7,11.5,30.36,North,0,0.0,1.0,70,0.00,,,0.00,meteo_script,2013-02-11 05:25:00,
2013-02-11 00:35:00,20.0,11.8,30.35,North,0,0.0,0.0,70,0.00,,,0.00,meteo_script,2013-02-11 05:35:00,
2013-02-11 00:40:00,20.4,10.9,30.35,North,0,0.0,1.0,66,0.00,,,0.00,meteo_script,2013-02-11 05:40:00,
2013-02-11 00:45:00,20.9,12.1,30.35,North,0,0.0,0.0,68,0.00,,,0.00,meteo_script,2013-02-11 05:45:00,
2013-02-11 00:50:00,21.2,11.7,30.35,North,0,0.0,1.0,66,0.00,,,0.00,meteo_script,2013-02-11 05:50:00,
2013-02-11 01:00:00,21.0,12.7,30.34,North,0,0.0,0.0,69,0.00,,,0.00,meteo_script,2013-02-11 06:00:00,
2013-02-11 01:05:00,20.7,12.8,30.33,North,0,0.0,0.0,71,0.00,,,0.00,meteo_script,2013-02-11 06:05:00,
2013-02-11 01:10:00,20.4,12.5,30.33,North,0,0.0,0.0,71,0.00,,,0.00,meteo_script,2013-02-11 06:10:00,
2013-02-11 01:15:00,20.2,12.4,30.33,North,0,0.0,0.0,71,0.00,,,0.00,meteo_script,2013-02-11 06:15:00,
2013-02-11 01:25:00,20.6,12.4,30.33,North,0,0.0,0.0,70,0.00,,,0.00,meteo_script,2013-02-11 06:25:00,
2013-02-11 01:30:00,20.8,12.2,30.32,North,0,0.0,0.0,68,0.00,,,0.00,meteo_script,2013-02-11 06:30:00,
2013-02-11 01:35:00,20.9,11.7,30.32,North,0,0.0,0.0,67,0.00,,,0.00,meteo_script,2013-02-11 06:35:00,
2013-02-11 01:40:00,21.0,12.3,30.31,North,0,0.0,0.0,68,0.00,,,0.00,meteo_script,2013-02-11 06:40:00,
2013-02-11 01:50:00,20.9,12.3,30.31,North,0,0.0,1.0,68,0.00,,,0.00,meteo_script,2013-02-11 06:50:00,
2013-02-11 01:55:00,20.9,11.7,30.31,North,0,0.0,1.0,66,0.00,,,0.00,meteo_script,2013-02-11 06:55:00,
2013-02-11 02:00:00,20.9,11.3,30.31,SSW,202,0.0,1.0,65,0.00,,,0.00,meteo_script,2013-02-11 07:00:00,
2013-02-11 02:05:00,20.7,11.2,30.31,SSW,202,0.0,1.0,66,0.00,,,0.00,meteo_script,2013-02-11 07:05:00,
2013-02-11 02:15:00,20.5,11.1,30.30,North,0,0.0,1.0,66,0.00,,,0.00,meteo_script,2013-02-11 07:15:00,
2013-02-11 02:20:00,20.6,11.2,30.30,North,0,0.0,0.0,66,0.00,,,0.00,meteo_script,2013-02-11 07:20:00,
2013-02-11 02:25:00,20.8,11.6,30.30,North,0,0.0,0.0,67,0.00,,,0.00,meteo_script,2013-02-11 07:25:00,
2013-02-11 02:30:00,21.0,11.8,30.30,North,0,0.0,0.0,67,0.00,,,0.00,meteo_script,2013-02-11 07:30:00,
2013-02-11 02:40:00,21.0,12.5,30.29,North,0,0.0,0.0,68,0.00,,,0.00,meteo_script,2013-02-11 07:40:00,
2013-02-11 02:45:00,21.2,11.3,30.29,North,0,0.0,0.0,65,0.00,,,0.00,meteo_script,2013-02-11 07:45:00,
2013-02-11 02:50:00,21.4,11.5,30.29,North,0,0.0,1.0,64,0.00,,,0.00,meteo_script,2013-02-11 07:50:00,
2013-02-11 02:55:00,21.6,11.3,30.29,SSW,202,0.0,1.0,64,0.00,,,0.00,meteo_script,2013-02-11 07:55:00,
2013-02-11 03:05:00,21.8,11.5,30.29,North,0,0.0,0.0,64,0.00,,,0.00,meteo_script,2013-02-11 08:05:00,
2013-02-11 03:10:00,21.9,12.2,30.29,North,0,0.0,0.0,65,0.00,,,0.00,meteo_script,2013-02-11 08:10:00,
2013-02-11 03:15:00,21.8,13.0,30.28,North,0,0.0,0.0,68,0.00,,,0.00,meteo_script,2013-02-11 08:15:00,
2013-02-11 03:20:00,21.6,13.4,30.28,North,0,0.0,1.0,70,0.00,,,0.00,meteo_script,2013-02-11 08:20:00,
2013-02-11 03:30:00,21.7,13.4,30.28,North,0,0.0,0.0,69,0.00,,,0.00,meteo_script,2013-02-11 08:30:00,
2013-02-11 03:35:00,21.5,13.5,30.28,North,0,0.0,0.0,70,0.00,,,0.00,meteo_script,2013-02-11 08:35:00,
2013-02-11 03:40:00,21.3,13.6,30.28,SSW,202,0.0,1.0,71,0.00,,,0.00,meteo_script,2013-02-11 08:40:00,
2013-02-11 03:45:00,21.5,13.3,30.28,North,0,0.0,1.0,70,0.00,,,0.00,meteo_script,2013-02-11 08:45:00,
2013-02-11 03:55:00,21.2,13.6,30.28,North,0,0.0,0.0,72,0.00,,,0.00,meteo_script,2013-02-11 08:55:00,
2013-02-11 04:00:00,21.1,12.3,30.28,SSW,202,0.0,1.0,68,0.00,,,0.00,meteo_script,2013-02-11 09:00:00,
2013-02-11 04:05:00,21.4,11.8,30.27,SSW,202,0.1,1.0,66,0.00,,,0.00,meteo_script,2013-02-11 09:05:00,
2013-02-11 04:10:00,21.7,12.8,30.27,North,0,0.1,1.0,67,0.00,,,0.00,meteo_script,2013-02-11 09:10:00,
2013-02-11 04:20:00,22.0,13.7,30.27,North,0,0.0,0.0,69,0.00,,,0.00,meteo_script,2013-02-11 09:20:00,
2013-02-11 04:25:00,22.1,13.1,30.26,North,0,0.0,1.0,67,0.00,,,0.00,meteo_script,2013-02-11 09:25:00,
2013-02-11 04:30:00,22.1,12.5,30.26,North,0,0.0,0.0,66,0.00,,,0.00,meteo_script,2013-02-11 09:30:00,
2013-02-11 04:35:00,22.2,12.4,30.26,North,0,0.0,1.0,65,0.00,,,0.00,meteo_script,2013-02-11 09:35:00,
2013-02-11 04:45:00,22.2,12.8,30.26,North,0,0.0,1.0,66,0.00,,,0.00,meteo_script,2013-02-11 09:45:00,
2013-02-11 04:55:00,22.1,13.3,30.25,North,0,0.0,0.0,68,0.00,,,0.00,meteo_script,2013-02-11 09:55:00,
2013-02-11 05:00:00,21.8,14.2,30.25,North,0,0.0,0.0,72,0.00,,,0.00,meteo_script,2013-02-11 10:00:00,
2013-02-11 05:10:00,21.3,14.3,30.25,North,0,0.0,0.0,74,0.00,,,0.00,meteo_script,2013-02-11 10:10:00,
2013-02-11 05:15:00,21.2,14.2,30.25,North,0,0.0,1.0,74,0.00,,,0.00,meteo_script,2013-02-11 10:15:00,
2013-02-11 05:25:00,21.1,13.2,30.25,SSW,202,0.0,1.0,71,0.00,,,0.00,meteo_script,2013-02-11 10:25:00,
2013-02-11 05:30:00,21.2,12.7,30.25,SSW,202,0.1,2.0,69,0.00,,,0.00,meteo_script,2013-02-11 10:30:00,
2013-02-11 05:35:00,21.3,12.7,30.25,SSW,202,0.1,2.0,69,0.00,,,0.00,meteo_script,2013-02-11 10:35:00,
2013-02-11 05:40:00,21.4,13.0,30.25,North,0,0.1,1.0,69,0.00,,,0.00,meteo_script,2013-02-11 10:40:00,
2013-02-11 05:50:00,21.6,13.3,30.26,North,0,0.0,1.0,70,0.00,,,0.00,meteo_script,2013-02-11 10:50:00,
2013-02-11 05:55:00,21.7,13.1,30.25,North,0,0.0,0.0,69,0.00,,,0.00,meteo_script,2013-02-11 10:55:00,
2013-02-11 06:00:00,21.7,13.2,30.25,SSW,202,0.0,1.0,69,0.00,,,0.00,meteo_script,2013-02-11 11:00:00,
2013-02-11 06:05:00,21.8,13.9,30.23,North,0,0.0,1.0,71,0.00,,,0.00,meteo_script,2013-02-11 11:05:00,
2013-02-11 06:15:00,22.0,14.3,30.23,North,0,0.0,0.0,71,0.00,,,0.00,meteo_script,2013-02-11 11:15:00,
2013-02-11 06:20:00,22.1,14.0,30.23,SSW,202,0.0,1.0,70,0.00,,,0.00,meteo_script,2013-02-11 11:20:00,
2013-02-11 06:25:00,22.3,14.0,30.23,North,0,0.0,0.0,70,0.00,,,0.00,meteo_script,2013-02-11 11:25:00,
2013-02-11 06:30:00,22.3,15.3,30.24,North,0,0.0,0.0,74,0.00,,,0.00,meteo_script,2013-02-11 11:30:00,
2013-02-11 06:40:00,22.0,16.2,30.23,North,0,0.0,0.0,77,0.00,,,0.00,meteo_script,2013-02-11 11:40:00,
2013-02-11 06:45:00,22.1,16.8,30.23,North,0,0.0,0.0,79,0.00,,,0.00,meteo_script,2013-02-11 11:45:00,
2013-02-11 06:50:00,22.2,16.4,30.23,North,0,0.0,0.0,77,0.00,,,0.00,meteo_script,2013-02-11 11:50:00,
2013-02-11 06:55:00,22.4,16.0,30.23,North,0,0.0,0.0,76,0.00,,,0.00,meteo_script,2013-02-11 11:55:00,
2013-02-11 07:00:00,22.7,15.7,30.22,North,0,0.0,0.0,74,0.00,,,0.00,meteo_script,2013-02-11 12:00:00,
2013-02-11 07:05:00,22.8,15.2,30.21,SSW,202,0.0,1.0,72,0.00,,,0.00,meteo_script,2013-02-11 12:05:00,
2013-02-11 07:10:00,22.9,15.4,30.21,SSW,202,0.0,1.0,72,0.00,,,0.00,meteo_script,2013-02-11 12:10:00,
2013-02-11 07:20:00,23.1,15.7,30.21,North,0,0.0,1.0,72,0.00,,,0.00,meteo_script,2013-02-11 12:20:00,
2013-02-11 07:25:00,23.3,16.1,30.20,North,0,0.0,0.0,73,0.00,,,0.00,meteo_script,2013-02-11 12:25:00,
2013-02-11 07:30:00,23.4,16.4,30.20,SSW,202,0.0,1.0,74,0.00,,,0.00,meteo_script,2013-02-11 12:30:00,
2013-02-11 07:35:00,23.5,16.5,30.20,SSW,202,0.1,2.0,74,0.00,,,0.00,meteo_script,2013-02-11 12:35:00,
2013-02-11 07:45:00,23.8,16.4,30.20,North,0,0.0,1.0,73,0.00,,,0.00,meteo_script,2013-02-11 12:45:00,
2013-02-11 07:50:00,23.9,17.0,30.20,North,0,0.0,0.0,74,0.00,,,0.00,meteo_script,2013-02-11 12:50:00,
2013-02-11 07:55:00,23.9,18.5,30.20,North,0,0.0,0.0,79,0.00,,,0.00,meteo_script,2013-02-11 12:55:00,
2013-02-11 08:00:00,23.8,18.1,30.20,North,0,0.0,0.0,78,0.00,,,0.00,meteo_script,2013-02-11 13:00:00,
2013-02-11 08:10:00,24.0,16.9,30.19,North,0,0.0,2.0,73,0.00,,,0.00,meteo_script,2013-02-11 13:10:00,
2013-02-11 08:15:00,24.0,16.7,30.19,SSW,202,0.0,1.0,73,0.00,,,0.00,meteo_script,2013-02-11 13:15:00,
2013-02-11 08:20:00,24.2,17.1,30.18,North,0,0.0,1.0,73,0.00,,,0.00,meteo_script,2013-02-11 13:20:00,
2013-02-11 08:25:00,24.4,18.0,30.18,North,0,0.0,0.0,76,0.00,,,0.00,meteo_script,2013-02-11 13:25:00,
2013-02-11 08:35:00,24.8,18.9,30.16,SSW,202,0.0,1.0,78,0.00,,,0.00,meteo_script,2013-02-11 13:35:00,
2013-02-11 08:40:00,25.1,19.5,30.15,North,0,0.0,1.0,78,0.00,,,0.00,meteo_script,2013-02-11 13:40:00,
2013-02-11 08:45:00,25.4,19.7,30.15,North,0,0.0,0.0,78,0.00,,,0.00,meteo_script,2013-02-11 13:45:00,
2013-02-11 13:55:00,33.0,33.0,29.85,North,0,0.0,0.0,100,0.06,,,0.13,meteo_script,2013-02-11 18:55:00,
2013-02-11 14:00:00,33.1,33.1,29.84,North,0,0.0,0.0,100,0.06,,,0.13,meteo_script,2013-02-11 19:00:00,
2013-02-11 14:05:00,33.3,33.3,29.84,North,0,0.0,0.0,100,0.04,,,0.13,meteo_script,2013-02-11 19:05:00,
2013-02-11 14:15:00,33.3,33.3,29.83,North,0,0.0,0.0,100,0.04,,,0.13,meteo_script,2013-02-11 19:15:00,
2013-02-11 14:25:00,33.1,33.1,29.83,North,0,0.0,0.0,100,0.02,,,0.13,meteo_script,2013-02-11 19:25:00,
2013-02-11 14:35:00,33.0,33.0,29.82,North,0,0.0,0.0,100,0.04,,,0.15,meteo_script,2013-02-11 19:35:00,
2013-02-11 14:40:00,33.1,33.1,29.83,SSW,202,0.0,1.0,100,0.04,,,0.15,meteo_script,2013-02-11 19:40:00,
2013-02-11 14:45:00,32.9,32.9,29.83,North,0,0.0,1.0,100,0.04,,,0.15,meteo_script,2013-02-11 19:45:00,
2013-02-11 14:50:00,32.7,32.7,29.83,North,0,0.0,0.0,100,0.02,,,0.15,meteo_script,2013-02-11 19:50:00,
2013-02-11 15:00:00,32.4,32.4,29.82,North,0,0.0,1.0,100,0.02,,,0.15,meteo_script,2013-02-11 20:00:00,
2013-02-11 15:05:00,32.2,32.2,29.82,North,0,0.0,0.0,100,0.02,,,0.15,meteo_script,2013-02-11 20:05:00,
2013-02-11 15:15:00,32.3,32.3,29.81,North,0,0.0,0.0,100,0.02,,,0.15,meteo_script,2013-02-11 20:15:00,
2013-02-11 15:20:00,32.3,32.3,29.81,North,0,0.0,0.0,100,0.02,,,0.15,meteo_script,2013-02-11 20:20:00,
2013-02-11 15:25:00,32.2,32.2,29.81,North,0,0.0,0.0,100,0.02,,,0.15,meteo_script,2013-02-11 20:25:00,
2013-02-11 15:30:00,32.2,32.2,29.80,North,0,0.0,1.0,100,0.00,,,0.15,meteo_script,2013-02-11 20:30:00,
2013-02-11 15:35:00,32.2,32.2,29.80,North,0,0.0,1.0,100,0.00,,,0.15,meteo_script,2013-02-11 20:35:00,
2013-02-11 15:40:00,32.2,32.2,29.80,North,0,0.0,1.0,100,0.02,,,0.17,meteo_script,2013-02-11 20:40:00,
2013-02-11 15:50:00,32.5,32.5,29.79,North,0,0.0,1.0,100,0.04,,,0.19,meteo_script,2013-02-11 20:50:00,
2013-02-11 15:55:00,32.6,32.6,29.79,North,0,0.0,0.0,100,0.04,,,0.19,meteo_script,2013-02-11 20:55:00,
2013-02-11 16:00:00,32.6,32.6,29.79,North,0,0.0,0.0,100,0.04,,,0.19,meteo_script,2013-02-11 21:00:00,
2013-02-11 16:05:00,32.8,32.8,29.78,North,0,0.0,0.0,100,0.04,,,0.19,meteo_script,2013-02-11 21:05:00,
2013-02-11 16:15:00,32.7,32.7,29.77,North,0,0.0,0.0,100,0.06,,,0.21,meteo_script,2013-02-11 21:15:00,
2013-02-11 16:20:00,32.5,32.5,29.77,North,0,0.0,0.0,100,0.06,,,0.21,meteo_script,2013-02-11 21:20:00,
2013-02-11 16:25:00,32.5,32.5,29.76,North,0,0.0,0.0,100,0.06,,,0.21,meteo_script,2013-02-11 21:25:00,
2013-02-11 16:30:00,32.4,32.4,29.75,North,0,0.0,0.0,100,0.06,,,0.21,meteo_script,2013-02-11 21:30:00,
2013-02-11 16:40:00,32.3,32.3,29.75,North,0,0.0,0.0,100,0.04,,,0.21,meteo_script,2013-02-11 21:40:00,
2013-02-11 16:45:00,32.2,32.2,29.74,North,0,0.0,0.0,100,0.04,,,0.21,meteo_script,2013-02-11 21:45:00,
2013-02-11 16:50:00,32.2,32.2,29.74,North,0,0.0,0.0,100,0.02,,,0.21,meteo_script,2013-02-11 21:50:00,
2013-02-11 17:00:00,32.0,32.0,29.73,North,0,0.0,0.0,100,0.02,,,0.21,meteo_script,2013-02-11 22:00:00,
2013-02-11 17:05:00,31.9,31.9,29.74,North,0,0.0,0.0,100,0.02,,,0.21,meteo_script,2013-02-11 22:05:00,
2013-02-11 17:10:00,31.9,31.9,29.74,North,0,0.0,0.0,100,0.00,,,0.21,meteo_script,2013-02-11 22:10:00,
2013-02-11 17:15:00,31.8,31.8,29.73,North,0,0.0,0.0,100,0.00,,,0.21,meteo_script,2013-02-11 22:15:00,
2013-02-11 17:25:00,31.7,31.7,29.73,North,0,0.0,0.0,100,0.00,,,0.21,meteo_script,2013-02-11 22:25:00,
2013-02-11 17:35:00,31.6,31.6,29.72,North,0,0.0,0.0,100,0.00,,,0.21,meteo_script,2013-02-11 22:35:00,
2013-02-11 17:45:00,31.6,31.6,29.71,North,0,0.0,0.0,100,0.00,,,0.21,meteo_script,2013-02-11 22:45:00,
2013-02-11 17:50:00,31.6,31.6,29.72,North,0,0.0,0.0,100,0.00,,,0.21,meteo_script,2013-02-11 22:50:00,
2013-02-11 18:00:00,31.6,31.6,29.72,North,0,0.0,0.0,100,0.00,,,0.21,meteo_script,2013-02-11 23:00:00,
2013-02-11 18:10:00,31.6,31.6,29.72,North,0,0.0,0.0,100,0.00,,,0.21,meteo_script,2013-02-11 23:10:00,
2013-02-11 18:15:00,31.6,31.6,29.72,North,0,0.0,0.0,100,0.00,,,0.21,meteo_script,2013-02-11 23:15:00,
2013-02-11 18:20:00,31.6,31.6,29.72,North,0,0.0,0.0,100,0.02,,,0.23,meteo_script,2013-02-11 23:20:00,
2013-02-11 18:30:00,31.6,31.6,29.71,North,0,0.0,0.0,100,0.02,,,0.23,meteo_script,2013-02-11 23:30:00,
2013-02-11 18:40:00,31.6,31.6,29.70,North,0,0.0,0.0,100,0.02,,,0.23,meteo_script,2013-02-11 23:40:00,
2013-02-11 18:50:00,31.6,31.6,29.71,North,0,0.0,0.0,100,0.02,,,0.23,meteo_script,2013-02-11 23:50:00,
2013-02-11 18:55:00,31.6,31.6,29.71,North,0,0.0,0.0,100,0.02,,,0.23,meteo_script,2013-02-11 23:55:00,
2013-02-11 19:00:00,31.6,31.6,29.71,North,0,0.0,0.0,100,0.02,,,0.23,meteo_script,2013-02-12 00:00:00,
2013-02-11 19:05:00,31.6,31.6,29.71,North,0,0.0,0.0,100,0.02,,,0.23,meteo_script,2013-02-12 00:05:00,
2013-02-11 19:15:00,31.6,31.6,29.70,North,0,0.0,0.0,100,0.02,,,0.23,meteo_script,2013-02-12 00:15:00,
2013-02-11 19:20:00,31.6,31.6,29.71,North,0,0.0,0.0,100,0.00,,,0.23,meteo_script,2013-02-12 00:20:00,
2013-02-11 19:25:00,31.6,31.6,29.70,North,0,0.0,0.0,100,0.00,,,0.23,meteo_script,2013-02-12 00:25:00,
2013-02-11 19:35:00,31.6,31.6,29.69,North,0,0.0,0.0,100,0.00,,,0.23,meteo_script,2013-02-12 00:35:00,
2013-02-11 19:40:00,31.6,31.6,29.69,North,0,0.0,0.0,100,0.00,,,0.23,meteo_script,2013-02-12 00:40:00,
2013-02-11 19:45:00,31.6,31.6,29.69,North,0,0.0,0.0,100,0.00,,,0.23,meteo_script,2013-02-12 00:45:00,
2013-02-11 19:50:00,31.6,31.6,29.68,North,0,0.0,0.0,100,0.00,,,0.23,meteo_script,2013-02-12 00:50:00,
2013-02-11 20:00:00,31.7,31.7,29.68,North,0,0.0,0.0,100,0.00,,,0.23,meteo_script,2013-02-12 01:00:00,
2013-02-11 20:10:00,31.7,31.7,29.68,North,0,0.0,0.0,100,0.00,,,0.23,meteo_script,2013-02-12 01:10:00,
2013-02-11 20:15:00,31.7,31.7,29.67,North,0,0.0,0.0,100,0.00,,,0.23,meteo_script,2013-02-12 01:15:00,
2013-02-11 20:25:00,31.7,31.7,29.67,North,0,0.0,0.0,100,0.00,,,0.23,meteo_script,2013-02-12 01:25:00,
2013-02-11 20:30:00,31.7,31.7,29.66,North,0,0.0,0.0,100,0.00,,,0.23,meteo_script,2013-02-12 01:30:00,
2013-02-11 20:35:00,31.7,31.7,29.67,North,0,0.0,0.0,100,0.00,,,0.23,meteo_script,2013-02-12 01:35:00,
2013-02-11 20:40:00,31.7,31.7,29.66,North,0,0.0,0.0,100,0.00,,,0.23,meteo_script,2013-02-12 01:40:00,
2013-02-11 20:45:00,31.7,31.7,29.66,North,0,0.0,0.0,100,0.00,,,0.23,meteo_script,2013-02-12 01:45:00,
2013-02-11 20:55:00,31.7,31.7,29.66,North,0,0.0,0.0,100,0.00,,,0.23,meteo_script,2013-02-12 01:55:00,
2013-02-11 21:05:00,31.7,31.7,29.66,North,0,0.0,0.0,100,0.00,,,0.23,meteo_script,2013-02-12 02:05:00,
2013-02-11 21:10:00,31.7,31.7,29.66,North,0,0.0,0.0,100,0.00,,,0.23,meteo_script,2013-02-12 02:10:00,
2013-02-11 21:15:00,31.7,31.7,29.66,North,0,0.0,0.0,100,0.00,,,0.23,meteo_script,2013-02-12 02:15:00,
2013-02-11 21:20:00,31.7,31.7,29.65,North,0,0.0,0.0,100,0.00,,,0.23,meteo_script,2013-02-12 02:20:00,
2013-02-11 21:30:00,31.6,31.6,29.67,North,0,0.0,1.0,100,0.00,,,0.23,meteo_script,2013-02-12 02:30:00,
2013-02-11 21:35:00,31.6,31.6,29.67,North,0,0.0,1.0,100,0.00,,,0.23,meteo_script,2013-02-12 02:35:00,
2013-02-11 21:40:00,31.5,31.5,29.67,North,0,0.0,0.0,100,0.00,,,0.23,meteo_script,2013-02-12 02:40:00,
2013-02-11 21:50:00,31.5,31.5,29.67,North,0,0.0,1.0,100,0.00,,,0.23,meteo_script,2013-02-12 02:50:00,
2013-02-11 21:55:00,31.5,31.5,29.67,SSW,202,0.0,1.0,100,0.00,,,0.23,meteo_script,2013-02-12 02:55:00,
2013-02-11 22:00:00,31.6,31.6,29.67,North,0,0.0,1.0,100,0.00,,,0.23,meteo_script,2013-02-12 03:00:00,
2013-02-11 22:05:00,31.6,31.6,29.66,North,0,0.0,0.0,100,0.00,,,0.23,meteo_script,2013-02-12 03:05:00,
2013-02-11 22:15:00,31.6,31.6,29.65,North,0,0.0,0.0,100,0.00,,,0.23,meteo_script,2013-02-12 03:15:00,
2013-02-11 22:20:00,31.6,31.6,29.65,North,0,0.0,0.0,100,0.00,,,0.23,meteo_script,2013-02-12 03:20:00,
2013-02-11 22:25:00,31.7,31.7,29.64,North,0,0.0,0.0,100,0.00,,,0.23,meteo_script,2013-02-12 03:25:00,
2013-02-11 22:30:00,31.7,31.7,29.64,North,0,0.0,0.0,100,0.00,,,0.23,meteo_script,2013-02-12 03:30:00,
2013-02-11 22:40:00,31.7,31.7,29.66,North,0,0.0,0.0,100,0.00,,,0.23,meteo_script,2013-02-12 03:40:00,
2013-02-11 22:45:00,31.7,31.7,29.64,North,0,0.0,0.0,100,0.00,,,0.23,meteo_script,2013-02-12 03:45:00,
2013-02-11 22:50:00,31.7,31.7,29.64,North,0,0.0,0.0,100,0.00,,,0.23,meteo_script,2013-02-12 03:50:00,
2013-02-11 22:55:00,31.7,31.7,29.64,North,0,0.0,0.0,100,0.00,,,0.23,meteo_script,2013-02-12 03:55:00,
2013-02-11 23:05:00,31.7,31.7,29.64,North,0,0.0,0.0,100,0.00,,,0.23,meteo_script,2013-02-12 04:05:00,
2013-02-11 23:10:00,31.7,31.7,29.65,North,0,0.0,0.0,100,0.00,,,0.23,meteo_script,2013-02-12 04:10:00,
2013-02-11 23:15:00,31.7,31.7,29.65,North,0,0.0,0.0,100,0.00,,,0.23,meteo_script,2013-02-12 04:15:00,
2013-02-11 23:20:00,31.7,31.7,29.65,North,0,0.0,0.0,100,0.00,,,0.23,meteo_script,2013-02-12 04:20:00,
2013-02-11 23:30:00,31.7,31.7,29.65,North,0,0.0,0.0,100,0.00,,,0.23,meteo_script,2013-02-12 04:30:00,
2013-02-11 23:40:00,31.5,31.5,29.65,North,0,0.0,0.0,100,0.00,,,0.23,meteo_script,2013-02-12 04:40:00,
2013-02-11 23:50:00,31.5,31.5,29.65,North,0,0.0,0.0,100,0.00,,,0.23,meteo_script,2013-02-12 04:50:00,
2013-02-11 23:55:00,31.5,31.5,29.64,North,0,0.0,0.0,100,0.00,,,0.23,meteo_script,2013-02-12 04:55:00,